Time;durP1;ratioP1;P1;durP2;ratioP2;P2;SDS_P1;SDS_P2;PMS_P1;PMS_P2;Temp;Humidity;BMP_temperature;BMP_pressure;BME280_temperature;BME280_humidity;BME280_pressure;Samples;Min_cycle;Max_cycle;Signal;HPM_P1;HPM_P2
2024/03/18 00:00:12;;;;;;;2.30;1.10;;;;;;;-0.50;69.54;101580.00;103125;1310;25349;-62
2024/03/18 00:02:37;;;;;;;2.60;1.30;;;;;;;-0.51;68.83;101576.23;105598;1295;23769;-61
2024/03/18 00:05:04;;;;;;;2.10;1.30;;;;;;;-0.55;69.48;101573.36;103134;1300;24446;-62
2024/03/18 00:07:29;;;;;;;1.90;1.00;;;;;;;-0.60;69.60;101571.97;103086;1318;22567;-62
2024/03/18 00:09:55;;;;;;;2.20;1.70;;;;;;;-0.64;69.51;101570.45;103203;1318;24381;-60
2024/03/18 00:12:21;;;;;;;3.50;1.30;;;;;;;-0.68;68.57;101565.85;103191;1310;22578;-62
2024/03/18 00:14:47;;;;;;;2.00;1.00;;;;;;;-0.73;67.90;101568.01;103157;1310;22672;-61
2024/03/18 00:17:13;;;;;;;2.00;1.10;;;;;;;-0.78;70.18;101562.38;103221;1317;22809;-62
2024/03/18 00:19:38;;;;;;;1.80;1.30;;;;;;;-0.83;68.29;101558.74;103264;1317;22575;-62
2024/03/18 00:22:05;;;;;;;2.00;1.10;;;;;;;-0.86;67.99;101563.01;103178;1316;22599;-62
2024/03/18 00:24:31;;;;;;;;;;;;;;;-0.89;68.35;101564.02;103736;1297;22700;-59
2024/03/18 00:26:56;;;;;;;4.40;1.40;;;;;;;-0.94;69.47;101565.86;106601;1316;22682;-60
2024/03/18 00:29:21;;;;;;;1.60;1.20;;;;;;;-0.97;68.90;101566.04;106604;1318;22785;-61
2024/03/18 00:31:47;;;;;;;3.00;1.40;;;;;;;-0.99;69.53;101565.80;106575;1318;22968;-61
2024/03/18 00:34:13;;;;;;;2.20;1.40;;;;;;;-1.00;69.17;101567.79;106641;1299;22623;-61
2024/03/18 00:36:39;;;;;;;2.80;1.50;;;;;;;-1.00;69.36;101566.58;106605;1317;22727;-61
2024/03/18 00:39:06;;;;;;;6.00;1.50;;;;;;;-1.02;68.61;101567.39;106596;1311;22610;-61
2024/03/18 00:41:48;;;;;;;4.70;1.50;;;;;;;-1.03;68.79;101568.34;106659;1317;22528;-60
2024/03/18 00:44:23;;;;;;;4.10;1.80;;;;;;;-1.04;68.69;101566.25;106626;1300;22116;-61
2024/03/18 00:46:48;;;;;;;2.70;1.40;;;;;;;-1.06;70.69;101568.58;106606;1318;22732;-61
2024/03/18 00:49:14;;;;;;;2.90;1.40;;;;;;;-1.05;70.10;101566.56;106642;1318;22952;-61
2024/03/18 00:51:40;;;;;;;2.90;1.40;;;;;;;-1.00;71.37;101565.90;106584;1310;22605;-61
2024/03/18 00:54:07;;;;;;;2.60;1.30;;;;;;;-0.95;71.90;101565.97;106587;1294;22532;-61
2024/03/18 00:56:36;;;;;;;4.70;1.70;;;;;;;-0.89;72.39;101566.26;106566;1311;22646;-60
2024/03/18 00:59:04;;;;;;;3.40;1.70;;;;;;;-0.84;71.14;101557.86;106636;1317;22224;-61
2024/03/18 01:01:30;;;;;;;3.60;1.60;;;;;;;-0.80;71.63;101557.68;106627;1315;22316;-60
2024/03/18 01:04:03;;;;;;;3.20;1.80;;;;;;;-0.74;70.69;101558.65;106577;1296;22574;-59
2024/03/18 01:06:28;;;;;;;2.90;1.70;;;;;;;-0.68;71.18;101554.86;106618;1318;22593;-60
2024/03/18 01:08:54;;;;;;;3.00;1.70;;;;;;;-0.63;70.53;101549.16;106552;1318;24272;-61
2024/03/18 01:11:19;;;;;;;4.90;2.90;;;;;;;-0.59;71.36;101547.64;106458;1310;24267;-60
2024/03/18 01:13:48;;;;;;;3.60;1.50;;;;;;;-0.56;70.32;101545.39;106548;1318;22826;-61
2024/03/18 01:16:24;;;;;;;5.60;1.80;;;;;;;-0.51;70.24;101541.86;106608;1300;22697;-61
2024/03/18 01:18:52;;;;;;;3.60;1.60;;;;;;;-0.47;71.57;101534.77;106606;1308;22601;-60
2024/03/18 01:21:21;;;;;;;4.10;1.40;;;;;;;-0.46;71.34;101534.11;106618;1316;22719;-61
2024/03/18 01:23:47;;;;;;;2.60;1.10;;;;;;;-0.46;73.57;101535.84;106646;1316;23882;-60
2024/03/18 01:26:13;;;;;;;7.90;1.90;;;;;;;-0.44;72.67;101530.81;106587;1299;22636;-61
2024/03/18 01:28:41;;;;;;;4.80;2.10;;;;;;;-0.42;71.88;101532.27;106375;1313;25474;-60
2024/03/18 01:31:06;;;;;;;3.20;1.80;;;;;;;-0.39;70.98;101532.58;106629;1318;22794;-61
2024/03/18 01:33:32;;;;;;;3.60;2.10;;;;;;;-0.36;70.58;101532.52;106568;1310;22876;-60
2024/03/18 01:35:58;;;;;;;3.40;1.80;;;;;;;-0.34;71.03;101532.63;105183;1298;25920;-59
2024/03/18 01:38:24;;;;;;;3.40;1.90;;;;;;;-0.29;72.15;101537.54;104464;1317;23033;-58
2024/03/18 01:40:49;;;;;;;3.60;2.00;;;;;;;-0.28;71.60;101533.54;104532;1316;25354;-57
2024/03/18 01:43:15;;;;;;;2.70;1.70;;;;;;;-0.27;71.65;101537.98;104656;1317;22862;-59
2024/03/18 01:45:40;;;;;;;4.80;2.10;;;;;;;-0.23;71.09;101534.25;105644;1299;23071;-61
2024/03/18 01:48:08;;;;;;;4.10;2.40;;;;;;;-0.21;70.77;101528.91;106593;1311;22984;-62
2024/03/18 01:50:33;;;;;;;5.10;2.10;;;;;;;-0.20;71.68;101523.05;106588;1318;22711;-60
2024/03/18 01:52:59;;;;;;;5.20;1.80;;;;;;;-0.21;71.13;101517.92;106532;1314;22710;-61
2024/03/18 01:55:26;;;;;;;4.10;2.40;;;;;;;-0.23;70.92;101519.67;106496;1300;22575;-60
2024/03/18 01:57:52;;;;;;;5.00;2.30;;;;;;;-0.27;70.28;101516.98;106467;1317;22877;-61
2024/03/18 02:00:32;;;;;;;2.20;1.80;;;;;;;-0.30;70.74;101516.70;106480;1316;22740;-61
2024/03/18 02:03:00;;;;;;;6.80;1.90;;;;;;;-0.35;71.27;101516.66;106525;1317;22709;-60
2024/03/18 02:05:26;;;;;;;5.10;1.90;;;;;;;-0.41;70.96;101516.56;106422;1296;24289;-60
2024/03/18 02:07:51;;;;;;;3.30;1.80;;;;;;;-0.50;72.14;101517.72;106258;1313;22612;-60
2024/03/18 02:10:17;;;;;;;3.50;2.00;;;;;;;-0.58;71.56;101518.88;106320;1318;22662;-61
2024/03/18 02:12:43;;;;;;;5.50;2.30;;;;;;;-0.64;71.13;101522.19;106223;1313;22903;-61
2024/03/18 02:15:08;;;;;;;3.90;2.10;;;;;;;-0.73;70.65;101519.59;106366;1307;22662;-60
2024/03/18 02:17:34;;;;;;;4.60;1.80;;;;;;;-0.80;71.29;101514.20;106386;1299;22592;-61
2024/03/18 02:19:59;;;;;;;6.60;1.60;;;;;;;-0.87;73.22;101514.39;106341;1318;22607;-60
2024/03/18 02:22:24;;;;;;;3.40;1.80;;;;;;;-0.91;71.97;101512.00;106328;1316;23046;-60
2024/03/18 02:24:50;;;;;;;2.50;1.50;;;;;;;-0.94;71.35;101509.81;106356;1318;22685;-60
2024/03/18 02:27:15;;;;;;;3.20;1.90;;;;;;;-1.02;70.91;101512.19;106317;1300;22573;-61
2024/03/18 02:29:41;;;;;;;2.90;1.50;;;;;;;-1.09;71.01;101515.45;106499;1317;22643;-60
2024/03/18 02:32:07;;;;;;;3.80;1.70;;;;;;;-1.18;70.92;101511.16;106395;1317;22216;-60
2024/03/18 02:34:33;;;;;;;2.80;1.70;;;;;;;-1.21;73.38;101509.48;106410;1317;22567;-61
2024/03/18 02:36:59;;;;;;;3.40;1.50;;;;;;;-1.23;71.44;101511.40;106330;1296;22633;-60
2024/03/18 02:39:26;;;;;;;4.40;2.20;;;;;;;-1.28;71.34;101512.03;106306;1315;22604;-61
2024/03/18 02:41:57;;;;;;;4.60;1.90;;;;;;;-1.35;71.09;101510.02;106386;1318;22634;-60
2024/03/18 02:44:22;;;;;;;2.90;1.50;;;;;;;-1.40;70.93;101513.18;106324;1310;22757;-61
2024/03/18 02:46:50;;;;;;;1.70;1.40;;;;;;;-1.47;71.72;101509.96;106303;1300;22881;-61
2024/03/18 02:49:15;;;;;;;4.60;2.10;;;;;;;-1.53;70.83;101506.95;106409;1317;22601;-60
2024/03/18 02:51:41;;;;;;;2.80;1.80;;;;;;;-1.58;71.19;101503.73;106368;1310;22596;-61
2024/03/18 02:54:07;;;;;;;4.60;1.90;;;;;;;-1.62;71.22;101506.23;106270;1317;22610;-60
2024/03/18 02:56:33;;;;;;;3.40;1.70;;;;;;;-1.67;71.19;101502.46;106192;1296;22746;-60
2024/03/18 02:58:58;;;;;;;5.00;2.20;;;;;;;-1.70;71.08;101503.15;106133;1313;22735;-61
2024/03/18 03:01:26;;;;;;;4.00;1.70;;;;;;;-1.72;70.99;101498.34;106130;1318;24258;-60
2024/03/18 03:03:52;;;;;;;4.20;1.80;;;;;;;-1.76;70.84;101497.42;106087;1313;22842;-60
2024/03/18 03:06:19;;;;;;;3.30;2.30;;;;;;;-1.79;70.90;101498.65;105834;1295;22525;-59
2024/03/18 03:08:48;;;;;;;2.40;1.80;;;;;;;-1.82;71.32;101501.88;106064;1299;26087;-60
2024/03/18 03:11:13;;;;;;;3.90;1.90;;;;;;;-1.85;71.19;101501.94;106094;1317;22610;-61
2024/03/18 03:13:40;;;;;;;4.10;2.20;;;;;;;-1.83;71.08;101500.33;105959;1317;22873;-61
2024/03/18 03:16:09;;;;;;;3.50;1.90;;;;;;;-1.78;71.15;101498.37;106192;1304;22590;-60
2024/03/18 03:18:34;;;;;;;5.60;2.20;;;;;;;-1.72;71.66;101496.48;105928;1299;22556;-59
2024/03/18 03:21:00;;;;;;;2.70;2.00;;;;;;;-1.65;71.26;101496.12;105991;1318;22621;-61
2024/03/18 03:23:25;;;;;;;7.90;1.90;;;;;;;-1.57;71.20;101498.55;105845;1312;24332;-61
2024/03/18 03:25:51;;;;;;;2.70;1.50;;;;;;;-1.48;71.53;101495.55;105996;1312;23031;-60
2024/03/18 03:28:17;;;;;;;3.30;1.50;;;;;;;-1.39;72.10;101499.51;106043;1305;22622;-60
2024/03/18 03:30:43;;;;;;;4.90;1.70;;;;;;;-1.32;71.71;101492.23;106054;1314;22687;-59
2024/03/18 03:33:09;;;;;;;3.80;1.80;;;;;;;-1.24;71.52;101496.31;105917;1302;22594;-60
2024/03/18 03:35:35;;;;;;;3.30;2.00;;;;;;;-1.17;71.54;101493.94;106322;1317;22586;-61
2024/03/18 03:38:01;;;;;;;4.00;2.00;;;;;;;-1.10;71.38;101492.41;106281;1300;22990;-61
2024/03/18 03:40:26;;;;;;;2.60;1.80;;;;;;;-1.02;71.38;101496.12;106322;1316;23182;-61
2024/03/18 03:42:54;;;;;;;4.70;1.60;;;;;;;-0.92;71.51;101499.94;106338;1318;22623;-60
2024/03/18 03:45:24;;;;;;;4.20;2.00;;;;;;;-0.84;71.63;101504.70;106285;1318;22701;-61
2024/03/18 03:47:53;;;;;;;2.70;1.60;;;;;;;-0.78;72.38;101501.77;106197;1300;22570;-60
2024/03/18 03:50:19;;;;;;;5.50;2.40;;;;;;;-0.73;72.11;101503.02;106357;1317;22668;-61
2024/03/18 03:52:44;;;;;;;4.70;1.80;;;;;;;-0.69;71.82;101497.27;106410;1310;22606;-61
2024/03/18 03:55:10;;;;;;;3.80;1.70;;;;;;;-0.63;71.53;101496.66;106413;1317;22676;-61
2024/03/18 03:57:35;;;;;;;3.10;1.40;;;;;;;-0.57;72.24;101493.34;106304;1296;22528;-60
2024/03/18 04:00:03;;;;;;;3.80;1.80;;;;;;;-0.55;72.34;101494.81;106162;1318;23095;-60
2024/03/18 04:02:29;;;;;;;1.70;1.00;;;;;;;-0.50;71.95;101489.23;106223;1318;22590;-61
2024/03/18 04:04:55;;;;;;;3.30;1.60;;;;;;;-0.45;71.92;101489.77;106312;1318;22519;-60
2024/03/18 04:07:23;;;;;;;3.50;1.30;;;;;;;-0.41;71.72;101486.27;106267;1318;22588;-60
2024/03/18 04:09:51;;;;;;;3.70;1.50;;;;;;;-0.37;72.14;101489.30;106291;1308;22605;-60
2024/03/18 04:12:18;;;;;;;2.90;1.30;;;;;;;-0.33;71.80;101487.08;106240;1317;24072;-61
2024/03/18 04:14:44;;;;;;;;;;;;;;;-0.28;71.62;101488.30;106362;1311;23278;-60
2024/03/18 04:17:10;;;;;;;2.60;1.50;;;;;;;-0.23;71.86;101486.67;104293;1317;22590;-59
2024/03/18 04:19:40;;;;;;;3.20;1.70;;;;;;;-0.20;72.86;101492.87;103783;1301;22593;-59
2024/03/18 04:22:05;;;;;;;4.90;2.10;;;;;;;-0.20;72.48;101494.59;103892;1317;22693;-61
2024/03/18 04:24:31;;;;;;;4.10;1.90;;;;;;;-0.18;72.19;101493.81;103899;1311;22678;-60
2024/03/18 04:26:57;;;;;;;5.30;1.90;;;;;;;-0.15;71.80;101493.25;103871;1318;25669;-61
2024/03/18 04:29:22;;;;;;;3.00;1.50;;;;;;;-0.12;72.20;101490.17;103872;1298;22688;-59
2024/03/18 04:31:48;;;;;;;4.10;1.90;;;;;;;-0.08;71.91;101495.58;103799;1317;22566;-59
2024/03/18 04:34:13;;;;;;;4.40;1.60;;;;;;;-0.07;71.80;101490.55;103878;1316;23278;-59
2024/03/18 04:36:38;;;;;;;4.00;1.70;;;;;;;-0.06;71.85;101494.13;103820;1306;24285;-60
2024/03/18 04:39:04;;;;;;;2.20;1.40;;;;;;;-0.06;71.80;101493.83;103845;1301;24338;-59
2024/03/18 04:41:29;;;;;;;2.10;1.40;;;;;;;-0.05;71.70;101493.51;103808;1318;22574;-60
2024/03/18 04:43:54;;;;;;;3.90;1.60;;;;;;;-0.05;72.36;101494.86;103819;1318;23192;-60
2024/03/18 04:46:20;;;;;;;3.70;1.60;;;;;;;-0.07;72.04;101491.58;103861;1318;26974;-60
2024/03/18 04:48:45;;;;;;;6.90;2.90;;;;;;;-0.05;72.00;101494.16;103822;1294;22932;-60
2024/03/18 04:51:10;;;;;;;4.30;1.80;;;;;;;-0.04;71.93;101490.83;103852;1303;25507;-59
2024/03/18 04:53:35;;;;;;;3.60;1.30;;;;;;;-0.03;71.90;101487.66;103865;1317;25567;-60
2024/03/18 04:56:01;;;;;;;3.30;1.40;;;;;;;-0.02;71.91;101489.23;103864;1313;22733;-59
2024/03/18 04:58:26;;;;;;;4.10;1.80;;;;;;;-0.00;72.21;101489.81;103948;1317;22577;-60
2024/03/18 05:00:52;;;;;;;3.30;1.40;;;;;;;0.01;71.92;101490.84;103765;1300;22584;-59
2024/03/18 05:03:17;;;;;;;2.50;1.00;;;;;;;0.01;71.76;101486.10;103814;1318;24917;-60
2024/03/18 05:05:42;;;;;;;3.60;1.60;;;;;;;0.04;71.84;101482.80;103908;1318;22632;-60
2024/03/18 05:08:08;;;;;;;1.40;1.20;;;;;;;0.05;71.86;101484.75;103933;1318;22745;-60
2024/03/18 05:10:33;;;;;;;2.10;1.10;;;;;;;0.07;72.17;101484.96;103656;1316;22681;-60
2024/03/18 05:13:01;;;;;;;2.30;1.00;;;;;;;0.08;71.99;101484.83;103864;1314;26743;-60
2024/03/18 05:15:27;;;;;;;2.20;1.00;;;;;;;0.09;71.97;101484.88;104349;1311;22836;-60
2024/03/18 05:17:52;;;;;;;3.60;1.20;;;;;;;0.12;71.85;101484.48;103936;1310;25338;-60
2024/03/18 05:20:17;;;;;;;2.60;1.00;;;;;;;0.15;71.81;101487.53;103836;1300;22594;-60
2024/03/18 05:22:43;;;;;;;5.90;1.40;;;;;;;0.18;71.77;101485.77;103950;1310;24259;-60
2024/03/18 05:25:13;;;;;;;5.50;1.30;;;;;;;0.20;71.63;101487.39;103562;1313;22587;-61
2024/03/18 05:27:39;;;;;;;2.70;1.00;;;;;;;0.20;71.92;101485.19;103881;1313;22571;-61
2024/03/18 05:30:06;;;;;;;2.30;1.00;;;;;;;0.20;71.92;101485.35;103823;1300;22573;-60
2024/03/18 05:32:32;;;;;;;1.20;0.90;;;;;;;0.21;71.90;101485.72;103910;1311;25279;-60
2024/03/18 05:34:58;;;;;;;2.10;1.10;;;;;;;0.23;71.78;101485.98;104074;1315;23193;-60
2024/03/18 05:37:25;;;;;;;5.00;1.50;;;;;;;0.26;71.84;101488.79;103331;1316;22683;-61
2024/03/18 05:39:50;;;;;;;2.50;0.80;;;;;;;0.27;72.33;101488.48;103224;1299;22640;-61
2024/03/18 05:42:16;;;;;;;3.70;1.70;;;;;;;0.27;71.88;101483.93;102820;1315;27758;-60
2024/03/18 05:44:41;;;;;;;3.40;1.30;;;;;;;0.29;71.89;101486.90;103074;1310;22774;-60
2024/03/18 05:47:08;;;;;;;3.10;1.30;;;;;;;0.32;71.97;101483.63;103308;1313;22581;-62
2024/03/18 05:49:34;;;;;;;2.70;1.10;;;;;;;0.32;71.88;101482.44;103325;1297;22570;-62
2024/03/18 05:52:00;;;;;;;2.20;1.20;;;;;;;0.34;71.85;101478.95;103090;1308;22617;-61
2024/03/18 05:54:25;;;;;;;4.70;0.90;;;;;;;0.37;71.67;101481.25;103241;1297;23152;-62
2024/03/18 05:56:51;;;;;;;4.30;1.10;;;;;;;0.38;71.64;101477.91;103399;1307;26575;-63
2024/03/18 05:59:16;;;;;;;4.20;1.20;;;;;;;0.41;71.83;101482.63;103280;1317;24304;-60
2024/03/18 06:01:42;;;;;;;2.20;1.00;;;;;;;0.44;72.08;101480.68;103001;1308;25347;-61
2024/03/18 06:04:08;;;;;;;1.90;0.90;;;;;;;0.42;72.02;101481.45;103108;1310;22568;-62
2024/03/18 06:06:34;;;;;;;4.50;1.20;;;;;;;0.43;71.90;101486.42;103082;1310;22660;-62
2024/03/18 06:09:01;;;;;;;4.90;1.00;;;;;;;0.47;71.80;101487.59;103412;1315;22605;-62
2024/03/18 06:11:27;;;;;;;1.80;0.90;;;;;;;0.51;71.83;101486.05;105183;1298;22749;-60
2024/03/18 06:13:53;;;;;;;2.50;1.20;;;;;;;0.52;72.03;101490.33;105069;1307;22617;-59
2024/03/18 06:16:19;;;;;;;5.10;1.70;;;;;;;0.55;72.10;101489.39;105231;1310;22607;-61
2024/03/18 06:18:44;;;;;;;2.20;1.10;;;;;;;0.59;71.94;101491.60;104963;1307;24052;-62
2024/03/18 06:21:16;;;;;;;2.50;1.30;;;;;;;0.63;72.07;101494.65;105076;1301;23059;-63
2024/03/18 06:23:55;;;;;;;2.70;1.10;;;;;;;0.67;72.24;101493.61;106866;1318;22303;-60
2024/03/18 06:26:21;;;;;;;2.50;1.20;;;;;;;0.68;72.11;101491.41;106994;1313;22340;-60
2024/03/18 06:28:47;;;;;;;2.90;1.20;;;;;;;0.65;72.18;101489.45;105930;1319;24176;-61
2024/03/18 06:31:14;;;;;;;3.30;1.10;;;;;;;0.68;71.87;101483.78;105209;1300;22820;-60
2024/03/18 06:33:40;;;;;;;2.40;1.00;;;;;;;0.71;71.90;101483.55;104773;1306;22618;-61
2024/03/18 06:36:10;;;;;;;2.90;1.20;;;;;;;0.79;71.97;101481.15;105004;1310;22329;-61
2024/03/18 06:38:36;;;;;;;6.30;1.60;;;;;;;0.88;71.93;101478.94;104865;1312;26209;-61
2024/03/18 06:41:02;;;;;;;4.10;1.90;;;;;;;0.94;71.93;101481.70;104800;1296;22580;-60
2024/03/18 06:43:27;;;;;;;3.70;2.00;;;;;;;1.02;72.02;101484.56;105334;1311;22521;-62
2024/03/18 06:45:53;;;;;;;2.80;1.70;;;;;;;1.09;71.97;101487.86;105150;1318;22546;-60
2024/03/18 06:48:18;;;;;;;3.60;1.70;;;;;;;1.11;71.76;101485.02;105460;1316;22968;-61
2024/03/18 06:50:44;;;;;;;6.10;2.00;;;;;;;1.12;71.84;101485.59;104989;1304;22096;-61
2024/03/18 06:53:09;;;;;;;8.40;2.30;;;;;;;1.16;71.93;101481.83;103625;1316;23196;-61
2024/03/18 06:55:35;;;;;;;5.20;1.80;;;;;;;1.24;71.96;101483.11;104313;1310;22594;-61
2024/03/18 06:58:04;;;;;;;3.40;1.70;;;;;;;1.28;72.06;101483.45;104641;1311;22592;-60
2024/03/18 07:00:31;;;;;;;5.20;1.90;;;;;;;1.31;71.89;101478.97;104670;1318;25351;-60
2024/03/18 07:02:56;;;;;;;5.20;2.30;;;;;;;1.28;71.83;101477.48;105001;1300;22602;-60
2024/03/18 07:05:23;;;;;;;4.40;2.00;;;;;;;1.28;71.83;101476.98;104738;1318;22896;-62
2024/03/18 07:07:50;;;;;;;3.30;2.20;;;;;;;1.35;72.00;101479.08;105960;1313;23531;-62
2024/03/18 07:10:16;;;;;;;4.60;1.30;;;;;;;1.43;71.95;101475.30;106039;1310;22546;-62
2024/03/18 07:12:46;;;;;;;4.10;1.80;;;;;;;1.47;71.87;101475.30;105995;1300;24230;-63
2024/03/18 07:15:19;;;;;;;3.00;1.30;;;;;;;1.52;71.94;101472.23;106338;1317;22645;-61
2024/03/18 07:17:44;;;;;;;5.80;1.50;;;;;;;1.60;71.93;101471.45;106004;1314;22734;-62
2024/03/18 07:20:11;;;;;;;2.10;0.90;;;;;;;1.69;71.95;101466.15;105679;1313;382851;-61
2024/03/18 07:22:42;;;;;;;3.50;1.30;;;;;;;1.78;71.83;101467.80;105783;1311;22633;-62
2024/03/18 07:25:11;;;;;;;3.80;1.10;;;;;;;1.86;71.87;101466.72;105994;1317;22630;-61
2024/03/18 07:27:39;;;;;;;3.70;1.10;;;;;;;1.98;72.01;101467.45;105800;1314;22620;-61
2024/03/18 07:30:13;;;;;;;3.50;1.20;;;;;;;2.10;71.43;101464.08;105818;1313;22586;-62
2024/03/18 07:32:39;;;;;;;4.60;1.50;;;;;;;2.17;71.63;101467.01;105536;1300;22645;-62
2024/03/18 07:35:06;;;;;;;4.70;1.50;;;;;;;2.26;71.60;101468.99;105793;1313;23199;-62
2024/03/18 07:37:32;;;;;;;6.10;1.60;;;;;;;2.35;71.71;101468.61;105855;1310;22595;-62
2024/03/18 07:39:58;;;;;;;3.20;1.20;;;;;;;2.43;71.43;101467.50;105520;1317;25324;-59
2024/03/18 07:42:24;;;;;;;2.20;1.40;;;;;;;2.45;71.30;101469.95;103950;1301;21975;-61
2024/03/18 07:44:49;;;;;;;4.60;1.60;;;;;;;2.52;71.40;101470.52;104025;1316;24660;-59
2024/03/18 07:47:15;;;;;;;2.70;1.30;;;;;;;2.54;70.61;101465.79;104442;1314;22767;-62
2024/03/18 07:49:42;;;;;;;5.00;1.20;;;;;;;2.58;71.20;101467.09;105346;1317;22609;-62
2024/03/18 07:52:09;;;;;;;3.90;1.40;;;;;;;2.65;71.23;101464.41;105444;1297;21976;-60
2024/03/18 07:54:35;;;;;;;4.40;1.30;;;;;;;2.73;71.51;101468.20;105586;1313;22628;-61
2024/03/18 07:57:02;;;;;;;3.80;1.10;;;;;;;2.81;71.28;101467.77;105520;1317;22654;-60
2024/03/18 07:59:28;;;;;;;2.40;0.90;;;;;;;2.86;71.26;101466.71;105541;1315;23077;-62
2024/03/18 08:01:53;;;;;;;4.10;1.40;;;;;;;2.97;71.52;101466.35;105477;1316;22630;-61
2024/03/18 08:04:19;;;;;;;2.00;1.10;;;;;;;3.09;71.29;101467.55;105605;1300;22514;-61
2024/03/18 08:06:48;;;;;;;5.40;1.30;;;;;;;3.19;71.21;101467.48;106976;1315;22384;-61
2024/03/18 08:09:14;;;;;;;5.40;1.50;;;;;;;3.35;71.13;101464.81;107036;1317;22267;-62
2024/03/18 08:11:41;;;;;;;3.20;1.30;;;;;;;3.44;70.46;101469.15;106986;1315;22294;-62
2024/03/18 08:14:06;;;;;;;6.50;2.00;;;;;;;3.45;68.24;101469.52;106940;1304;22471;-62
2024/03/18 08:16:32;;;;;;;6.50;1.40;;;;;;;3.50;69.90;101471.04;106795;1311;22264;-61
2024/03/18 08:18:58;;;;;;;2.90;1.70;;;;;;;3.62;69.42;101467.41;106715;1318;23345;-61
2024/03/18 08:21:24;;;;;;;3.90;1.50;;;;;;;3.74;68.55;101465.66;106738;1314;22455;-62
2024/03/18 08:23:49;;;;;;;5.10;1.20;;;;;;;3.94;69.67;101462.77;106787;1307;23164;-60
2024/03/18 08:26:15;;;;;;;4.40;1.50;;;;;;;4.61;70.52;101461.20;106768;1310;22279;-61
2024/03/18 08:28:40;;;;;;;3.40;1.30;;;;;;;5.40;69.42;101457.64;106762;1314;22261;-59
2024/03/18 08:31:05;;;;;;;5.30;1.40;;;;;;;5.53;63.30;101452.08;106787;1316;22704;-60
2024/03/18 08:33:31;;;;;;;5.30;1.20;;;;;;;5.62;68.12;101450.70;103842;1311;22585;-57
2024/03/18 08:35:56;;;;;;;3.40;1.40;;;;;;;5.75;69.31;101453.96;103075;1310;22879;-59
2024/03/18 08:38:22;;;;;;;4.70;1.50;;;;;;;5.84;69.38;101454.14;102892;1318;22617;-60
2024/03/18 08:40:54;;;;;;;3.10;1.00;;;;;;;5.82;66.54;101456.66;104905;1310;22821;-60
2024/03/18 08:43:20;;;;;;;1.80;1.20;;;;;;;5.30;61.21;101459.68;102997;1295;22689;-61
2024/03/18 08:45:56;;;;;;;5.20;1.10;;;;;;;4.63;64.36;101458.69;103121;1316;22609;-60
2024/03/18 08:48:22;;;;;;;2.80;1.40;;;;;;;4.56;66.73;101460.61;103133;1318;22636;-61
2024/03/18 08:50:48;;;;;;;3.30;1.40;;;;;;;4.47;66.20;101458.17;103106;1316;22572;-61
2024/03/18 08:53:14;;;;;;;4.50;1.20;;;;;;;4.23;66.15;101458.65;102943;1317;22565;-61
2024/03/18 08:55:41;;;;;;;3.10;1.30;;;;;;;4.15;67.55;101457.29;103094;1318;22895;-61
2024/03/18 08:58:06;;;;;;;2.20;1.00;;;;;;;4.13;66.87;101459.30;103038;1318;22535;-60
2024/03/18 09:00:32;;;;;;;2.10;1.00;;;;;;;4.12;67.93;101459.44;103371;1310;25333;-60
2024/03/18 09:02:57;;;;;;;2.00;1.30;;;;;;;4.11;67.72;101459.42;102875;1316;22597;-60
2024/03/18 09:05:23;;;;;;;6.70;1.50;;;;;;;4.13;68.09;101457.92;103030;1301;24587;-61
2024/03/18 09:07:49;;;;;;;4.50;2.10;;;;;;;4.24;68.42;101456.27;103152;1318;22654;-61
2024/03/18 09:10:15;;;;;;;2.90;1.30;;;;;;;4.38;68.64;101457.30;103046;1313;22686;-60
2024/03/18 09:12:41;;;;;;;3.20;0.90;;;;;;;4.48;68.32;101455.98;103300;1310;22681;-60
2024/03/18 09:15:07;;;;;;;3.60;1.50;;;;;;;4.48;66.93;101452.55;103124;1312;24360;-59
2024/03/18 09:17:33;;;;;;;6.60;3.00;;;;;;;4.38;66.65;101455.06;103756;1318;26892;-60
2024/03/18 09:19:58;;;;;;;3.10;1.50;;;;;;;4.26;67.28;101453.61;102910;1318;22789;-62
2024/03/18 09:22:24;;;;;;;3.50;1.80;;;;;;;4.23;67.44;101455.56;103122;1317;22596;-59
2024/03/18 09:24:49;;;;;;;1.70;0.90;;;;;;;4.21;67.44;101456.73;103036;1299;22700;-61
2024/03/18 09:27:15;;;;;;;1.90;0.70;;;;;;;4.12;66.19;101456.02;105337;1313;22803;-60
2024/03/18 09:29:40;;;;;;;2.80;0.80;;;;;;;4.01;67.20;101453.52;105635;1318;22605;-62
2024/03/18 09:32:05;;;;;;;2.50;2.30;;;;;;;3.98;66.92;101457.40;105642;1310;23017;-61
2024/03/18 09:34:31;;;;;;;5.10;3.00;;;;;;;3.99;66.72;101455.21;105646;1300;22531;-61
2024/03/18 09:36:56;;;;;;;1.80;1.20;;;;;;;4.02;66.98;101457.32;103747;1310;22596;-61
2024/03/18 09:39:22;;;;;;;3.20;0.90;;;;;;;4.02;65.77;101450.33;103515;1316;22592;-61
2024/03/18 09:41:52;;;;;;;3.80;2.30;;;;;;;4.11;67.04;101449.34;103560;1317;22691;-62
2024/03/18 09:44:17;;;;;;;5.00;4.50;;;;;;;4.12;66.86;101448.86;103549;1301;22574;-61
2024/03/18 09:46:42;;;;;;;1.50;1.30;;;;;;;4.10;67.11;101446.77;103647;1310;22619;-61
2024/03/18 09:49:22;;;;;;;1.60;0.90;;;;;;;4.09;67.12;101444.85;103692;1310;22621;-61
2024/03/18 09:51:49;;;;;;;4.00;1.00;;;;;;;4.04;66.44;101441.00;104556;1313;22801;-62
2024/03/18 09:54:19;;;;;;;2.40;1.20;;;;;;;3.96;66.99;101437.73;104286;1312;25545;-60
2024/03/18 09:56:57;;;;;;;2.30;0.90;;;;;;;3.92;66.88;101437.64;104495;1295;22578;-60
2024/03/18 09:59:22;;;;;;;3.90;1.40;;;;;;;3.90;67.07;101437.06;104086;1314;22528;-62
2024/03/18 10:01:47;;;;;;;4.80;1.60;;;;;;;3.94;67.25;101436.33;103570;1318;22611;-59
2024/03/18 10:04:13;;;;;;;4.20;1.60;;;;;;;3.98;66.96;101433.02;103579;1304;24368;-60
2024/03/18 10:06:39;;;;;;;3.40;1.40;;;;;;;4.00;66.89;101434.59;103591;1301;23512;-60
2024/03/18 10:09:05;;;;;;;1.40;0.60;;;;;;;4.03;66.93;101437.02;103418;1317;22566;-59
2024/03/18 10:11:31;;;;;;;1.40;0.70;;;;;;;3.98;66.86;101435.06;103747;1310;22679;-62
2024/03/18 10:13:56;;;;;;;1.80;1.00;;;;;;;3.97;66.63;101436.57;103510;1310;22590;-60
2024/03/18 10:16:22;;;;;;;1.00;0.70;;;;;;;3.94;66.50;101435.30;103370;1300;22582;-60
2024/03/18 10:18:47;;;;;;;1.90;1.00;;;;;;;3.90;66.75;101433.83;103891;1312;22755;-61
2024/03/18 10:21:13;;;;;;;2.40;0.90;;;;;;;3.89;66.66;101430.73;103499;1306;22698;-61
2024/03/18 10:23:44;;;;;;;2.70;1.00;;;;;;;3.90;66.77;101433.48;103093;1313;24507;-61
2024/03/18 10:26:15;;;;;;;2.10;0.90;;;;;;;3.92;66.61;101429.80;103787;1311;22702;-60
2024/03/18 10:28:41;;;;;;;1.60;1.00;;;;;;;4.00;66.83;101426.22;103180;1302;22596;-59
2024/03/18 10:31:09;;;;;;;2.20;1.40;;;;;;;4.07;66.43;101426.55;103104;1317;22628;-61
2024/03/18 10:33:35;;;;;;;2.60;1.10;;;;;;;4.05;66.36;101425.48;103342;1310;22623;-61
2024/03/18 10:36:03;;;;;;;3.30;1.70;;;;;;;4.00;65.89;101425.55;103151;1300;26112;-60
2024/03/18 10:38:34;;;;;;;2.10;1.40;;;;;;;3.95;65.74;101424.41;103208;1318;25663;-60
2024/03/18 10:41:02;;;;;;;7.20;4.20;;;;;;;3.88;65.97;101424.41;103887;1314;22922;-61
2024/03/18 10:43:35;;;;;;;3.60;1.80;;;;;;;3.85;65.85;101423.82;104654;1310;23178;-60
2024/03/18 10:46:02;;;;;;;2.70;1.30;;;;;;;3.83;65.93;101418.82;105639;1301;24054;-58
2024/03/18 10:48:28;;;;;;;2.50;0.90;;;;;;;3.81;66.05;101421.66;103988;1297;22577;-59
2024/03/18 10:50:55;;;;;;;2.70;1.10;;;;;;;3.88;66.53;101420.14;104396;1306;22522;-57
2024/03/18 10:53:24;;;;;;;2.20;2.00;;;;;;;3.99;66.27;101417.33;104008;1303;22567;-59
2024/03/18 10:55:55;;;;;;;1.60;1.10;;;;;;;4.05;66.46;101417.29;104451;1297;22776;-59
2024/03/18 10:58:26;;;;;;;0.80;0.80;;;;;;;4.10;66.14;101418.62;104938;1311;22526;-60
2024/03/18 11:00:52;;;;;;;1.70;1.00;;;;;;;3.99;63.56;101418.35;104555;1318;22658;-60
2024/03/18 11:03:22;;;;;;;2.50;1.00;;;;;;;3.94;65.88;101413.80;104181;1313;22689;-59
2024/03/18 11:05:52;;;;;;;9.40;4.50;;;;;;;4.02;65.84;101415.53;103748;1301;25493;-60
2024/03/18 11:08:20;;;;;;;2.00;1.30;;;;;;;4.03;65.71;101417.09;103041;1300;25598;-60
2024/03/18 11:10:47;;;;;;;1.30;0.90;;;;;;;4.06;65.63;101419.38;103216;1318;26627;-60
2024/03/18 11:13:20;;;;;;;3.20;1.20;;;;;;;4.06;65.68;101416.13;102875;1297;22589;-60
2024/03/18 11:15:51;;;;;;;4.30;2.80;;;;;;;4.08;65.37;101416.69;102995;1313;22649;-59
2024/03/18 11:18:27;;;;;;;7.60;5.10;;;;;;;4.10;65.90;101415.03;103085;1300;25281;-59